Terminal Aerodrome Forecast
Issued by NWS

Home | Current Version | Previous Version | Text Only | Print | Product List | Glossary On
Versions: 1 2 3 4 5 6 7 8 9 10 11 12 13 14 15 16 17 18 19 20
000
FTUS45 KFGZ 311100
TAFGCN
TAF
KGCN 311123Z 3112/0112 VRB03KT P6SM FEW005 SCT017 BKN025
      TEMPO 3112/3116 5SM -SHRA BR SCT004 OVC015
     FM311600 VRB05KT P6SM BKN025
     FM010200 02008KT P6SM FEW025
      TEMPO 0108/0112 1SM BR FEW002 OVC006=

USA.gov is the U.S. government's official web portal to all federal, state and local government web resources and services.